createdAt,value
2018-12-12T00:00:56.369Z,99987.97
2018-12-12T00:03:24.488Z,99990.20
2018-12-12T00:05:57.616Z,99987.54
2018-12-12T00:08:25.895Z,99991.44
2018-12-12T00:10:54.078Z,99988.72
2018-12-12T00:13:22.188Z,99988.09
2018-12-12T00:15:50.542Z,99990.73
2018-12-12T00:18:18.913Z,99994.58
2018-12-12T00:20:47.078Z,99994.92
2018-12-12T00:23:16.092Z,99998.55
2018-12-12T00:25:44.178Z,99997.15
2018-12-12T00:28:12.250Z,100000.37
2018-12-12T00:30:40.295Z,99996.88
2018-12-12T00:33:08.378Z,99997.97
2018-12-12T00:35:36.628Z,100000.54
2018-12-12T00:38:04.856Z,99994.67
2018-12-12T00:40:32.905Z,99997.47
2018-12-12T00:43:01.098Z,100000.27
2018-12-12T00:45:29.577Z,99989.25
2018-12-12T00:47:57.737Z,99993.09
2018-12-12T00:50:25.892Z,99996.91
2018-12-12T00:52:54.037Z,99992.12
2018-12-12T00:55:22.256Z,99996.36
2018-12-12T00:57:51.147Z,99993.23
2018-12-12T01:00:19.403Z,99989.32
2018-12-12T01:02:48.123Z,99991.47
2018-12-12T01:08:16.289Z,100001.77
2018-12-12T01:10:44.384Z,100000.78
2018-12-12T01:13:12.495Z,100006.68
2018-12-12T01:15:40.645Z,100008.12
2018-12-12T01:18:08.792Z,100000.28
2018-12-12T01:20:37.014Z,100002.28
2018-12-12T01:23:05.298Z,100003.61
2018-12-12T01:25:33.447Z,99998.17
2018-12-12T01:28:01.718Z,99999.53
2018-12-12T01:30:29.859Z,100001.34
2018-12-12T01:32:58.040Z,100001.49
2018-12-12T01:35:26.141Z,100002.59
2018-12-12T01:37:54.322Z,100004.95
2018-12-12T01:40:22.450Z,100009.96
2018-12-12T01:42:50.644Z,100003.58
2018-12-12T01:45:18.807Z,100003.28
2018-12-12T01:47:46.966Z,100008.97
2018-12-12T01:50:15.056Z,100008.84
2018-12-12T01:52:43.321Z,100010.66
2018-12-12T01:55:11.986Z,100008.28
2018-12-12T01:57:40.159Z,100014.42
2018-12-12T02:00:08.392Z,100012.36
2018-12-12T02:02:36.522Z,100012.92
2018-12-12T02:05:04.725Z,100013.94
2018-12-12T02:07:32.770Z,100016.64
2018-12-12T02:10:00.845Z,100018.36
2018-12-12T02:12:29.162Z,100017.64
2018-12-12T02:14:57.300Z,100018.02
2018-12-12T02:17:25.338Z,100010.08
2018-12-12T02:22:18.711Z,100011.87
2018-12-12T02:24:56.386Z,100018.90
2018-12-12T02:27:24.617Z,100019.38
2018-12-12T02:29:52.696Z,100015.15
2018-12-12T02:32:20.745Z,100015.84
2018-12-12T02:34:48.843Z,100013.80
2018-12-12T02:37:17.009Z,100018.77
2018-12-12T02:39:45.064Z,100018.99
2018-12-12T02:42:13.148Z,100016.50
2018-12-12T02:44:41.279Z,100016.69
2018-12-12T02:47:09.498Z,100015.77
2018-12-12T02:49:37.603Z,100019.13
2018-12-12T02:52:05.674Z,100025.12
2018-12-12T02:54:33.784Z,100022.72
2018-12-12T02:57:02.581Z,100015.70
2018-12-12T02:59:30.716Z,100016.11
2018-12-12T03:01:58.836Z,100013.80
2018-12-12T03:04:27.104Z,100019.06
2018-12-12T03:06:55.225Z,100017.50
2018-12-12T03:09:23.303Z,100012.94
2018-12-12T03:11:51.438Z,100016.59
2018-12-12T03:14:29.197Z,100020.86
2018-12-12T03:16:57.289Z,100019.91
2018-12-12T03:19:26.477Z,100024.33
2018-12-12T03:21:54.617Z,100024.89
2018-12-12T03:24:22.743Z,100008.97
2018-12-12T03:26:50.860Z,100029.59
2018-12-12T03:29:18.950Z,100026.98
2018-12-12T03:31:47.085Z,100020.56
2018-12-12T03:34:15.165Z,100025.54
2018-12-12T03:36:43.308Z,100029.53
2018-12-12T03:39:11.630Z,100026.77
2018-12-12T03:41:39.726Z,100029.86
2018-12-12T03:44:08.275Z,100031.30
2018-12-12T03:46:36.364Z,100024.14
2018-12-12T03:49:04.668Z,100021.07
2018-12-12T03:51:32.700Z,100023.47
2018-12-12T03:54:00.795Z,100028.48
2018-12-12T03:56:28.957Z,100025.35
2018-12-12T03:58:57.130Z,100025.49
2018-12-12T04:01:25.238Z,100026.34
2018-12-12T04:04:02.907Z,100025.05
2018-12-12T04:06:31.092Z,100020.20
2018-12-12T04:08:59.175Z,100022.84
2018-12-12T04:11:27.312Z,100021.23
2018-12-12T04:14:14.016Z,100021.28
2018-12-12T04:16:42.216Z,100016.26
2018-12-12T04:19:10.655Z,100020.81
2018-12-12T04:21:38.711Z,100037.00
2018-12-12T04:24:06.806Z,100037.02
2018-12-12T04:26:34.915Z,100037.56
2018-12-12T04:29:03.048Z,100038.94
2018-12-12T04:31:31.205Z,100042.88
2018-12-12T04:33:59.226Z,100047.98
2018-12-12T04:39:30.327Z,100045.05
2018-12-12T04:41:58.762Z,100050.29
2018-12-12T04:44:27.178Z,100042.93
2018-12-12T04:46:55.436Z,100038.05
2018-12-12T04:49:23.546Z,100035.86
2018-12-12T04:51:51.745Z,100044.98
2018-12-12T04:54:19.835Z,100041.53
2018-12-12T04:56:48.030Z,100050.82
2018-12-12T04:59:16.467Z,100045.08
2018-12-12T05:01:44.542Z,100045.09
2018-12-12T05:04:12.633Z,100045.45
2018-12-12T05:06:40.807Z,100047.30
2018-12-12T05:09:08.930Z,100053.59
2018-12-12T05:11:37.134Z,100050.10
2018-12-12T05:14:05.235Z,100052.45
2018-12-12T05:16:34.034Z,100053.58
2018-12-12T05:19:02.192Z,100053.39
2018-12-12T05:21:30.278Z,100053.66
2018-12-12T05:23:58.713Z,100051.83
2018-12-12T05:26:26.875Z,100052.67
2018-12-12T05:28:55.549Z,100055.58
2018-12-12T05:31:23.685Z,100058.35
2018-12-12T05:33:51.858Z,100058.35
2018-12-12T05:36:19.933Z,100060.00
2018-12-12T05:38:48.021Z,100067.52
2018-12-12T05:41:16.123Z,100066.89
2018-12-12T05:43:44.285Z,100065.27
2018-12-12T05:46:12.456Z,100069.16
2018-12-12T05:48:40.592Z,100075.67
2018-12-12T05:51:08.757Z,100064.77
2018-12-12T05:53:36.916Z,100075.80
2018-12-12T05:56:05.025Z,100071.86
2018-12-12T05:58:33.089Z,100071.53
2018-12-12T06:01:01.370Z,100071.72
2018-12-12T06:03:29.415Z,100082.49
2018-12-12T06:06:02.630Z,100078.56
2018-12-12T06:08:30.671Z,100077.80
2018-12-12T06:10:58.822Z,100077.75
2018-12-12T06:13:29.072Z,100077.48
2018-12-12T06:15:58.092Z,100080.34
2018-12-12T06:18:26.390Z,100082.00
2018-12-12T06:20:54.515Z,100087.92
2018-12-12T06:23:22.652Z,100091.05
2018-12-12T06:25:51.198Z,100087.20
2018-12-12T06:28:26.009Z,100089.11
2018-12-12T06:30:55.210Z,100093.36
2018-12-12T06:33:23.395Z,100095.62
2018-12-12T06:35:52.539Z,100097.27
2018-12-12T06:38:20.742Z,100103.62
2018-12-12T06:40:50.100Z,100102.95
2018-12-12T06:43:19.843Z,100103.59
2018-12-12T06:45:53.232Z,100099.47
2018-12-12T06:48:21.478Z,100105.97
2018-12-12T06:50:49.686Z,100103.56
2018-12-12T06:53:17.846Z,100101.58
2018-12-12T06:55:45.967Z,100103.59
2018-12-12T06:58:14.124Z,100109.50
2018-12-12T07:00:42.264Z,100104.89
2018-12-12T07:03:10.382Z,100106.92
2018-12-12T07:05:38.556Z,100111.23
2018-12-12T07:08:06.697Z,100115.89
2018-12-12T07:10:34.844Z,100112.95
2018-12-12T07:13:02.916Z,100115.72
2018-12-12T07:15:31.050Z,100119.89
2018-12-12T07:17:59.186Z,100119.73
2018-12-12T07:20:27.376Z,100115.49
2018-12-12T07:22:55.436Z,100120.76
2018-12-12T07:25:23.666Z,100120.89
2018-12-12T07:27:51.781Z,100121.38
2018-12-12T07:30:19.964Z,100120.92
2018-12-12T07:32:48.217Z,100118.34
2018-12-12T07:35:16.511Z,100123.37
2018-12-12T07:37:44.882Z,100125.02
2018-12-12T07:40:13.101Z,100125.16
2018-12-12T07:42:41.231Z,100126.48
2018-12-12T07:45:14.453Z,100122.42
2018-12-12T07:47:42.649Z,100126.38
2018-12-12T07:50:10.922Z,100126.19
2018-12-12T07:52:39.075Z,100127.38
2018-12-12T07:55:21.159Z,100128.73
2018-12-12T07:57:49.355Z,100135.45
2018-12-12T08:00:17.624Z,100133.31
2018-12-12T08:02:45.688Z,100127.98
2018-12-12T08:05:13.988Z,100129.34
2018-12-12T08:07:42.114Z,100130.75
2018-12-12T08:10:10.325Z,100130.20
2018-12-12T08:12:38.479Z,100064.55
2018-12-12T08:15:08.620Z,100132.03
2018-12-12T08:17:36.749Z,100131.95
2018-12-12T08:20:05.496Z,100134.61
2018-12-12T08:22:33.982Z,100133.88
2018-12-12T08:25:02.330Z,100141.86
2018-12-12T08:27:30.434Z,100135.83
2018-12-12T08:29:58.528Z,100145.68
2018-12-12T08:32:26.636Z,100145.46
2018-12-12T08:34:54.845Z,100142.95
2018-12-12T08:37:22.989Z,100138.38
2018-12-12T08:39:51.082Z,100144.34
2018-12-12T08:42:19.209Z,100141.01
2018-12-12T08:44:47.403Z,100144.77
2018-12-12T08:47:15.540Z,100142.00
2018-12-12T08:49:43.654Z,100142.20
2018-12-12T08:52:11.827Z,100140.98
2018-12-12T08:54:40.334Z,100141.30
2018-12-12T08:57:08.739Z,100142.69
2018-12-12T08:59:36.893Z,100139.41
2018-12-12T09:02:05.532Z,100140.73
2018-12-12T09:04:34.168Z,100142.80
2018-12-12T09:07:02.201Z,100139.20
2018-12-12T09:09:30.206Z,100138.86
2018-12-12T09:11:58.304Z,100143.31
2018-12-12T09:14:26.514Z,100142.12
2018-12-12T09:16:55.014Z,100141.91
2018-12-12T09:19:23.190Z,100143.66
2018-12-12T09:21:51.305Z,100142.77
2018-12-12T09:24:19.501Z,100146.63
2018-12-12T09:26:48.368Z,100145.74
2018-12-12T09:29:16.589Z,100144.89
2018-12-12T09:31:44.789Z,100143.53
2018-12-12T09:34:12.948Z,100140.62
2018-12-12T09:36:41.147Z,100142.60
2018-12-12T09:39:09.231Z,100144.30
2018-12-12T09:41:37.391Z,100139.32
2018-12-12T09:44:05.876Z,100141.05
2018-12-12T09:46:34.096Z,100138.21
2018-12-12T09:49:02.293Z,100135.55
2018-12-12T09:51:30.418Z,100132.16
2018-12-12T09:53:59.474Z,100128.83
2018-12-12T09:56:27.605Z,100126.95
2018-12-12T09:58:55.784Z,100122.69
2018-12-12T10:01:24.001Z,100121.20
2018-12-12T10:03:52.223Z,100121.47
2018-12-12T10:06:20.344Z,100119.56
2018-12-12T10:08:48.464Z,100114.77
2018-12-12T10:11:16.535Z,100121.34
2018-12-12T10:13:44.717Z,100115.48
2018-12-12T10:16:12.863Z,100118.40
2018-12-12T10:18:41.004Z,100119.85
2018-12-12T10:21:09.267Z,100116.03
2018-12-12T10:23:37.411Z,100114.38
2018-12-12T10:26:05.635Z,100106.73
2018-12-12T10:28:33.763Z,100106.20
2018-12-12T10:31:01.852Z,100100.63
2018-12-12T10:33:29.963Z,100099.80
2018-12-12T10:35:58.035Z,100101.14
2018-12-12T10:38:26.164Z,100103.61
2018-12-12T10:40:54.308Z,100111.37
2018-12-12T10:43:22.616Z,100104.77
2018-12-12T10:45:55.921Z,100108.69
2018-12-12T10:48:24.006Z,100103.88
2018-12-12T10:50:52.148Z,100104.30
2018-12-12T10:53:20.205Z,100102.31
2018-12-12T10:55:48.369Z,100099.31
2018-12-12T10:58:16.453Z,100096.75
2018-12-12T11:01:47.582Z,100091.53
2018-12-12T11:04:18.066Z,100091.87
2018-12-12T11:06:46.242Z,100090.59
2018-12-12T11:09:14.350Z,100087.99
2018-12-12T11:11:42.557Z,100086.73
2018-12-12T11:14:10.671Z,100085.42
2018-12-12T11:16:38.798Z,100080.84
2018-12-12T11:19:06.960Z,100078.84
2018-12-12T11:21:35.198Z,100078.14
2018-12-12T11:24:03.359Z,100075.45
2018-12-12T11:26:31.518Z,100071.35
2018-12-12T11:28:59.604Z,100068.77
2018-12-12T11:31:27.683Z,100063.49
2018-12-12T11:33:56.121Z,100059.14
2018-12-12T11:36:24.255Z,100059.39
2018-12-12T11:38:52.868Z,100050.33
2018-12-12T11:41:20.988Z,100047.50
2018-12-12T11:43:49.125Z,100041.00
2018-12-12T11:46:17.233Z,100036.66
2018-12-12T11:48:45.395Z,100038.19
2018-12-12T11:51:13.484Z,100034.81
2018-12-12T11:53:41.544Z,100031.03
2018-12-12T11:56:09.709Z,100027.79
2018-12-12T11:58:37.841Z,100037.75
2018-12-12T12:01:06.015Z,99989.16
2018-12-12T12:03:34.242Z,100027.33
2018-12-12T12:06:02.390Z,100023.05
2018-12-12T12:08:31.179Z,100016.37
2018-12-12T12:10:59.217Z,100021.98
2018-12-12T12:13:27.315Z,100025.91
2018-12-12T12:15:55.561Z,100021.49
2018-12-12T12:18:23.677Z,100027.78
2018-12-12T12:20:51.952Z,100024.70
2018-12-12T12:23:20.244Z,100027.63
2018-12-12T12:25:48.609Z,100026.48
2018-12-12T12:28:16.893Z,100025.19
2018-12-12T12:30:45.253Z,100022.51
2018-12-12T12:33:13.576Z,100023.89
2018-12-12T12:35:42.270Z,100025.37
2018-12-12T12:38:10.410Z,100028.26
2018-12-12T12:40:38.573Z,100028.37
2018-12-12T12:43:07.696Z,100030.05
2018-12-12T12:45:35.783Z,100029.16
2018-12-12T12:48:03.886Z,100028.36
2018-12-12T12:50:32.687Z,100030.79
2018-12-12T12:53:00.821Z,100027.54
2018-12-12T12:55:29.504Z,100027.30
2018-12-12T12:57:58.480Z,100025.78
2018-12-12T13:00:26.670Z,100021.42
2018-12-12T13:02:54.817Z,100023.97
2018-12-12T13:05:23.024Z,100021.36
2018-12-12T13:07:51.191Z,100017.63
2018-12-12T13:10:19.875Z,100024.45
2018-12-12T13:12:48.520Z,100023.07
2018-12-12T13:15:17.216Z,100018.61
2018-12-12T13:17:45.413Z,100022.61
2018-12-12T13:20:13.734Z,100021.41
2018-12-12T13:22:42.070Z,100020.53
2018-12-12T13:25:11.199Z,100017.27
2018-12-12T13:27:39.354Z,100014.36
2018-12-12T13:30:07.863Z,100014.87
2018-12-12T13:32:36.142Z,100008.40
2018-12-12T13:35:09.609Z,100014.78
2018-12-12T13:37:37.768Z,100017.84
2018-12-12T13:40:06.601Z,100018.72
2018-12-12T13:42:34.722Z,100012.94
2018-12-12T13:45:02.822Z,100016.51
2018-12-12T13:47:31.065Z,100012.81
2018-12-12T13:49:59.193Z,100015.67
2018-12-12T13:52:27.440Z,100012.89
2018-12-12T13:54:55.650Z,100014.55
2018-12-12T13:57:23.812Z,100011.25
2018-12-12T13:59:52.299Z,100008.11
2018-12-12T14:02:20.467Z,100005.27
2018-12-12T14:04:48.622Z,100007.42
2018-12-12T14:07:16.865Z,100005.67
2018-12-12T14:09:44.981Z,100008.58
2018-12-12T14:12:17.350Z,100015.31
2018-12-12T14:14:43.300Z,100013.20
2018-12-12T14:17:11.432Z,100009.98
2018-12-12T14:19:39.586Z,100015.37
2018-12-12T14:22:07.707Z,100013.41
2018-12-12T14:24:35.884Z,100022.70
2018-12-12T14:27:04.067Z,100019.77
2018-12-12T14:29:32.291Z,100022.89
2018-12-12T14:32:00.429Z,100022.53
2018-12-12T14:34:29.310Z,100023.72
2018-12-12T14:36:57.843Z,100025.49
2018-12-12T14:39:26.040Z,100028.14
2018-12-12T14:41:54.164Z,100025.45
2018-12-12T14:44:22.526Z,100028.91
2018-12-12T14:46:50.796Z,100026.45
2018-12-12T14:49:18.938Z,100031.19
2018-12-12T14:51:47.139Z,100037.40
2018-12-12T14:54:15.280Z,100040.12
2018-12-12T14:56:43.457Z,100040.22
2018-12-12T14:59:11.684Z,100045.77
2018-12-12T15:01:39.955Z,100055.28
2018-12-12T15:04:08.109Z,100053.73
2018-12-12T15:06:36.293Z,100051.34
2018-12-12T15:09:07.124Z,100051.42
2018-12-12T15:11:36.013Z,100057.73
2018-12-12T15:14:05.505Z,100053.28
2018-12-12T15:16:33.660Z,100046.43
2018-12-12T15:19:01.827Z,100052.20
2018-12-12T15:21:29.912Z,100053.95
2018-12-12T15:23:58.064Z,100057.03
2018-12-12T15:26:26.199Z,100062.23
2018-12-12T15:28:54.380Z,100057.72
2018-12-12T15:31:27.491Z,100065.16
2018-12-12T15:33:55.726Z,100066.53
2018-12-12T15:36:23.755Z,100066.67
2018-12-12T15:38:51.982Z,100067.16
2018-12-12T15:41:20.076Z,100064.97
2018-12-12T15:44:07.129Z,100064.66
2018-12-12T15:46:36.210Z,100072.32
2018-12-12T15:49:05.287Z,100069.80
2018-12-12T15:51:33.471Z,100072.15
2018-12-12T15:56:46.173Z,100080.38
2018-12-12T15:59:15.764Z,100075.42
2018-12-12T16:01:46.047Z,100076.42
2018-12-12T16:04:14.262Z,100078.32
2018-12-12T16:06:42.302Z,100077.34
2018-12-12T16:09:10.595Z,100077.48
2018-12-12T16:11:42.495Z,100078.07
2018-12-12T16:14:17.148Z,100082.52
2018-12-12T16:16:48.837Z,100086.45
2018-12-12T16:19:20.595Z,100082.73
2018-12-12T16:21:55.140Z,100083.46
2018-12-12T16:26:57.531Z,100074.16
2018-12-12T16:29:28.767Z,100072.23
2018-12-12T16:32:04.065Z,100074.83
2018-12-12T16:34:36.365Z,100073.14
2018-12-12T16:37:06.099Z,100071.01
2018-12-12T16:39:38.958Z,100072.45
2018-12-12T16:42:08.615Z,100078.52
2018-12-12T16:44:49.607Z,100085.27
2018-12-12T16:47:19.911Z,100083.48
2018-12-12T16:49:51.465Z,100080.81
2018-12-12T16:52:19.768Z,100084.45
2018-12-12T16:54:49.873Z,100080.67
2018-12-12T16:57:21.729Z,100075.93
2018-12-12T16:59:55.685Z,100077.05
2018-12-12T17:02:30.382Z,100077.64
2018-12-12T17:05:04.984Z,100076.44
2018-12-12T17:07:38.608Z,100076.06
2018-12-12T17:10:12.931Z,100078.33
2018-12-12T17:12:47.461Z,100073.95
2018-12-12T17:15:21.478Z,100072.23
2018-12-12T17:17:52.872Z,100076.07
2018-12-12T17:20:22.978Z,100072.20
2018-12-12T17:22:55.001Z,100071.27
2018-12-12T17:27:58.497Z,100068.64
2018-12-12T17:30:32.153Z,100073.91
2018-12-12T17:33:04.567Z,100066.47
2018-12-12T17:35:38.376Z,100076.41
2018-12-12T17:38:10.943Z,100073.98
2018-12-12T17:40:45.126Z,100071.77
2018-12-12T17:43:17.295Z,100065.98
2018-12-12T17:45:47.342Z,100062.45
2018-12-12T17:48:22.162Z,100063.77
2018-12-12T17:50:56.655Z,100063.68
2018-12-12T17:53:28.483Z,100059.28
2018-12-12T17:55:59.764Z,100064.91
2018-12-12T17:58:33.529Z,100071.34
2018-12-12T18:01:05.130Z,100060.39
2018-12-12T18:03:39.289Z,100056.02
2018-12-12T18:06:10.898Z,100057.42
2018-12-12T18:08:45.676Z,100055.69
2018-12-12T18:11:17.724Z,100055.37
2018-12-12T18:13:51.739Z,100047.89
2018-12-12T18:16:39.264Z,100046.03
2018-12-12T18:19:10.993Z,100042.49
2018-12-12T18:22:00.303Z,100042.91
2018-12-12T18:24:35.054Z,100039.53
2018-12-12T18:27:09.961Z,100040.52
2018-12-12T18:29:42.286Z,100042.64
2018-12-12T18:32:23.478Z,100040.67
2018-12-12T18:35:02.029Z,100036.97
2018-12-12T18:37:36.699Z,100039.00
2018-12-12T18:40:10.595Z,100044.47
2018-12-12T18:42:42.385Z,100040.80
2018-12-12T18:45:16.563Z,100049.12
2018-12-12T18:47:50.732Z,100042.61
2018-12-12T18:50:25.114Z,100050.64
2018-12-12T18:52:57.374Z,100053.11
2018-12-12T18:55:31.902Z,100048.89
2018-12-12T18:58:03.535Z,100056.44
2018-12-12T19:00:35.815Z,100054.46
2018-12-12T19:03:07.837Z,100053.78
2018-12-12T19:05:40.156Z,100058.23
2018-12-12T19:08:13.859Z,100055.02
2018-12-12T19:10:48.812Z,100052.04
2018-12-12T19:13:22.728Z,100048.50
2018-12-12T19:15:56.578Z,100045.14
2018-12-12T19:18:28.319Z,100045.23
2018-12-12T19:21:00.181Z,100045.66
2018-12-12T19:23:30.714Z,100051.28
2018-12-12T19:25:58.825Z,100053.78
2018-12-12T19:28:26.996Z,100058.33
2018-12-12T19:30:55.265Z,100056.63
2018-12-12T19:48:56.143Z,100053.97
2018-12-12T19:51:24.259Z,100055.80
2018-12-12T19:53:52.441Z,100060.92
2018-12-12T19:56:20.652Z,100060.39
2018-12-12T19:58:48.927Z,100057.23
2018-12-12T20:01:17.572Z,100057.81
2018-12-12T20:03:45.705Z,100049.36
2018-12-12T20:06:14.206Z,100049.57
2018-12-12T20:08:46.060Z,100051.25
2018-12-12T20:11:30.761Z,100052.11
2018-12-12T20:13:58.943Z,100048.29
2018-12-12T20:16:27.268Z,100053.98
2018-12-12T20:18:55.401Z,100055.97
2018-12-12T20:21:24.425Z,100055.16
2018-12-12T20:23:52.702Z,100058.16
2018-12-12T20:26:20.938Z,100052.20
2018-12-12T20:28:52.811Z,100053.16
2018-12-12T20:34:31.989Z,100049.45
2018-12-12T20:37:05.989Z,100049.45
2018-12-12T20:39:40.055Z,100054.36
2018-12-12T20:42:11.402Z,100055.67
2018-12-12T20:44:43.590Z,100061.16
2018-12-12T20:47:15.373Z,100053.02
2018-12-12T20:49:47.824Z,100056.30
2018-12-12T20:52:19.530Z,100061.06
2018-12-12T20:54:53.736Z,100058.70
2018-12-12T20:57:25.497Z,100061.48
2018-12-12T20:59:57.150Z,100058.31
2018-12-12T21:02:27.245Z,100060.64
2018-12-12T21:04:57.390Z,100053.27
2018-12-12T21:07:31.581Z,100055.44
2018-12-12T21:10:04.426Z,100051.08
2018-12-12T21:12:35.180Z,100050.89
2018-12-12T21:15:10.381Z,100049.52
2018-12-12T21:17:41.744Z,100045.88
2018-12-12T21:20:14.399Z,100043.02
2018-12-12T21:22:49.409Z,100044.66
2018-12-12T21:25:21.362Z,100040.89
2018-12-12T21:28:03.463Z,100038.48
2018-12-12T21:30:35.529Z,100036.20
2018-12-12T21:35:41.093Z,100043.36
2018-12-12T21:38:15.280Z,100039.33
2018-12-12T21:40:47.732Z,100041.25
2018-12-12T21:43:19.994Z,100039.46
2018-12-12T21:45:51.944Z,100040.05
2018-12-12T21:48:21.835Z,100005.45
2018-12-12T21:50:50.898Z,100045.70
2018-12-12T21:53:24.458Z,100047.97
2018-12-12T21:55:56.130Z,100044.36
2018-12-12T21:58:29.714Z,100043.00
2018-12-12T22:01:04.294Z,100043.77
2018-12-12T22:03:36.432Z,100047.27
2018-12-12T22:06:08.323Z,100042.61
2018-12-12T22:08:40.364Z,100042.45
2018-12-12T22:11:12.700Z,100040.32
2018-12-12T22:13:44.606Z,100031.23
2018-12-12T22:16:19.615Z,100036.14
2018-12-12T22:18:53.432Z,100036.92
2018-12-12T22:21:27.419Z,100037.72
2018-12-12T22:23:58.909Z,100041.64
2018-12-12T22:26:33.427Z,100033.88
2018-12-12T22:29:07.746Z,100036.93
2018-12-12T22:31:41.957Z,100027.68
2018-12-12T22:36:44.852Z,100021.16
2018-12-12T22:39:21.169Z,100022.96
2018-12-12T22:42:14.595Z,100016.17
2018-12-12T22:44:49.121Z,100014.08
2018-12-12T22:47:20.874Z,100018.03
2018-12-12T22:49:51.620Z,100015.88
2018-12-12T22:52:23.303Z,100014.42
2018-12-12T22:54:54.940Z,100014.18
2018-12-12T22:57:26.141Z,100015.42
2018-12-12T22:59:57.309Z,100022.16
2018-12-12T23:02:27.382Z,99764.94
2018-12-12T23:04:58.547Z,100020.05
2018-12-12T23:07:32.178Z,100025.33
2018-12-12T23:10:04.077Z,100022.59
2018-12-12T23:12:33.507Z,100019.59
2018-12-12T23:15:02.858Z,100016.00
2018-12-12T23:17:34.970Z,100018.31
2018-12-12T23:20:08.750Z,100018.42
2018-12-12T23:22:49.229Z,100017.28
2018-12-12T23:25:23.343Z,100016.16
2018-12-12T23:27:55.275Z,100014.38
2018-12-12T23:30:26.404Z,100012.45
2018-12-12T23:32:58.555Z,100012.72
2018-12-12T23:38:02.175Z,100012.91
2018-12-12T23:40:35.721Z,100011.05
2018-12-12T23:43:07.162Z,100008.39
2018-12-12T23:45:38.547Z,100010.50
2018-12-12T23:48:12.256Z,100005.63
2018-12-12T23:50:46.472Z,100004.67
2018-12-12T23:53:16.109Z,99836.89
2018-12-12T23:55:50.594Z,99990.83
2018-12-12T23:58:25.027Z,99989.77
